sensor_id;sensor_type;location;lat;lon;timestamp;pressure;altitude;pressure_sealevel;temperature;humidity
47985;BME280;33753;52.912;-7.342;2023-02-26T00:00:30;101271.16;;;3.95;100.00
47985;BME280;33753;52.912;-7.342;2023-02-26T00:02:59;101277.06;;;4.01;100.00
47985;BME280;33753;52.912;-7.342;2023-02-26T00:05:28;101287.13;;;3.97;100.00
47985;BME280;33753;52.912;-7.342;2023-02-26T00:07:56;101287.22;;;3.95;100.00
47985;BME280;33753;52.912;-7.342;2023-02-26T00:10:24;101285.31;;;3.97;100.00
47985;BME280;33753;52.912;-7.342;2023-02-26T00:12:52;101291.63;;;3.96;100.00
47985;BME280;33753;52.912;-7.342;2023-02-26T00:15:21;101288.94;;;3.96;100.00
47985;BME280;33753;52.912;-7.342;2023-02-26T00:17:51;101292.56;;;3.95;100.00
47985;BME280;33753;52.912;-7.342;2023-02-26T00:20:25;101288.28;;;3.93;100.00
47985;BME280;33753;52.912;-7.342;2023-02-26T00:22:53;101296.44;;;3.91;100.00
47985;BME280;33753;52.912;-7.342;2023-02-26T00:25:21;101294.75;;;3.90;100.00
47985;BME280;33753;52.912;-7.342;2023-02-26T00:27:50;101298.38;;;3.89;100.00
47985;BME280;33753;52.912;-7.342;2023-02-26T00:30:19;101306.72;;;3.85;100.00
47985;BME280;33753;52.912;-7.342;2023-02-26T00:32:47;101300.28;;;3.87;100.00
47985;BME280;33753;52.912;-7.342;2023-02-26T00:35:16;101302.97;;;3.87;100.00
47985;BME280;33753;52.912;-7.342;2023-02-26T00:38:08;101310.16;;;3.87;100.00
47985;BME280;33753;52.912;-7.342;2023-02-26T00:40:38;101316.16;;;3.90;100.00
47985;BME280;33753;52.912;-7.342;2023-02-26T00:43:09;101315.38;;;3.88;100.00
47985;BME280;33753;52.912;-7.342;2023-02-26T00:45:41;101320.75;;;3.88;100.00
47985;BME280;33753;52.912;-7.342;2023-02-26T00:48:15;101328.56;;;3.91;100.00
47985;BME280;33753;52.912;-7.342;2023-02-26T00:50:53;101319.00;;;3.87;100.00
47985;BME280;33753;52.912;-7.342;2023-02-26T00:53:26;101319.13;;;3.86;100.00
47985;BME280;33753;52.912;-7.342;2023-02-26T00:55:55;101321.69;;;3.87;100.00
47985;BME280;33753;52.912;-7.342;2023-02-26T00:58:24;101309.28;;;3.86;100.00
47985;BME280;33753;52.912;-7.342;2023-02-26T01:00:52;101312.09;;;3.85;100.00
47985;BME280;33753;52.912;-7.342;2023-02-26T01:03:20;101312.94;;;3.85;100.00
47985;BME280;33753;52.912;-7.342;2023-02-26T01:05:49;101307.56;;;3.85;100.00
47985;BME280;33753;52.912;-7.342;2023-02-26T01:08:18;101319.78;;;3.89;100.00
47985;BME280;33753;52.912;-7.342;2023-02-26T01:10:51;101325.97;;;3.90;100.00
47985;BME280;33753;52.912;-7.342;2023-02-26T01:13:19;101323.19;;;3.91;100.00
47985;BME280;33753;52.912;-7.342;2023-02-26T01:15:49;101331.13;;;3.93;100.00
47985;BME280;33753;52.912;-7.342;2023-02-26T01:18:19;101325.97;;;3.90;100.00
47985;BME280;33753;52.912;-7.342;2023-02-26T01:20:53;101328.56;;;3.91;100.00
47985;BME280;33753;52.912;-7.342;2023-02-26T01:23:24;101327.91;;;3.88;100.00
47985;BME280;33753;52.912;-7.342;2023-02-26T01:25:55;101336.06;;;3.86;100.00
47985;BME280;33753;52.912;-7.342;2023-02-26T01:28:25;101336.06;;;3.86;100.00
47985;BME280;33753;52.912;-7.342;2023-02-26T01:30:54;101334.56;;;3.82;100.00
47985;BME280;33753;52.912;-7.342;2023-02-26T01:33:27;101336.69;;;3.77;100.00
47985;BME280;33753;52.912;-7.342;2023-02-26T01:35:57;101340.75;;;3.70;100.00
47985;BME280;33753;52.912;-7.342;2023-02-26T01:38:29;101339.22;;;3.66;100.00
47985;BME280;33753;52.912;-7.342;2023-02-26T01:41:11;101347.25;;;3.66;100.00
47985;BME280;33753;52.912;-7.342;2023-02-26T01:43:42;101353.78;;;3.61;100.00
47985;BME280;33753;52.912;-7.342;2023-02-26T01:46:13;101360.22;;;3.59;100.00
47985;BME280;33753;52.912;-7.342;2023-02-26T01:48:47;101361.69;;;3.50;100.00
47985;BME280;33753;52.912;-7.342;2023-02-26T01:51:16;101358.88;;;3.39;100.00
47985;BME280;33753;52.912;-7.342;2023-02-26T01:53:44;101357.38;;;3.35;100.00
47985;BME280;33753;52.912;-7.342;2023-02-26T01:56:14;101358.75;;;3.27;100.00
47985;BME280;33753;52.912;-7.342;2023-02-26T01:58:44;101362.00;;;3.18;100.00
47985;BME280;33753;52.912;-7.342;2023-02-26T02:01:13;101355.16;;;3.14;100.00
47985;BME280;33753;52.912;-7.342;2023-02-26T02:03:41;101349.28;;;3.09;100.00
47985;BME280;33753;52.912;-7.342;2023-02-26T02:06:14;101354.06;;;3.04;100.00
47985;BME280;33753;52.912;-7.342;2023-02-26T02:08:43;101353.63;;;3.10;100.00
47985;BME280;33753;52.912;-7.342;2023-02-26T02:11:13;101357.72;;;3.16;100.00
47985;BME280;33753;52.912;-7.342;2023-02-26T02:13:47;101362.00;;;3.18;100.00
47985;BME280;33753;52.912;-7.342;2023-02-26T02:16:20;101362.59;;;3.23;100.00
47985;BME280;33753;52.912;-7.342;2023-02-26T02:18:52;101364.47;;;3.21;100.00
47985;BME280;33753;52.912;-7.342;2023-02-26T02:21:34;101371.03;;;3.30;100.00
47985;BME280;33753;52.912;-7.342;2023-02-26T02:24:10;101368.28;;;3.32;100.00
47985;BME280;33753;52.912;-7.342;2023-02-26T02:26:47;101363.78;;;3.32;100.00
47985;BME280;33753;52.912;-7.342;2023-02-26T02:32:07;101361.09;;;3.32;100.00
47985;BME280;33753;52.912;-7.342;2023-02-26T02:34:38;101361.22;;;3.31;100.00
47985;BME280;33753;52.912;-7.342;2023-02-26T02:37:10;101358.53;;;3.31;100.00
47985;BME280;33753;52.912;-7.342;2023-02-26T02:39:42;101368.28;;;3.32;100.00
47985;BME280;33753;52.912;-7.342;2023-02-26T02:42:16;101368.47;;;3.28;100.00
47985;BME280;33753;52.912;-7.342;2023-02-26T02:44:47;101372.13;;;3.27;100.00
47985;BME280;33753;52.912;-7.342;2023-02-26T02:47:19;101359.91;;;3.23;100.00
47985;BME280;33753;52.912;-7.342;2023-02-26T02:49:50;101363.53;;;3.22;100.00
47985;BME280;33753;52.912;-7.342;2023-02-26T02:52:20;101369.09;;;3.19;100.00
47985;BME280;33753;52.912;-7.342;2023-02-26T02:54:54;101372.91;;;3.15;100.00
47985;BME280;33753;52.912;-7.342;2023-02-26T02:57:25;101373.97;;;3.13;100.00
47985;BME280;33753;52.912;-7.342;2023-02-26T02:59:55;101366.06;;;3.11;100.00
47985;BME280;33753;52.912;-7.342;2023-02-26T03:02:28;101377.63;;;3.11;100.00
47985;BME280;33753;52.912;-7.342;2023-02-26T03:05:00;101382.09;;;3.11;100.00
47985;BME280;33753;52.912;-7.342;2023-02-26T03:07:29;101378.69;;;3.09;100.00
47985;BME280;33753;52.912;-7.342;2023-02-26T03:09:59;101380.56;;;3.07;100.00
47985;BME280;33753;52.912;-7.342;2023-02-26T03:12:29;101388.78;;;3.04;100.00
47985;BME280;33753;52.912;-7.342;2023-02-26T03:14:58;101389.94;;;3.00;100.00
47985;BME280;33753;52.912;-7.342;2023-02-26T03:17:30;101397.44;;;2.94;100.00
47985;BME280;33753;52.912;-7.342;2023-02-26T03:20:07;101394.19;;;2.89;100.00
47985;BME280;33753;52.912;-7.342;2023-02-26T03:22:38;101399.94;;;2.83;100.00
47985;BME280;33753;52.912;-7.342;2023-02-26T03:25:18;101398.59;;;2.76;100.00
47985;BME280;33753;52.912;-7.342;2023-02-26T03:27:48;101400.50;;;2.74;100.00
47985;BME280;33753;52.912;-7.342;2023-02-26T03:30:20;101401.28;;;2.62;100.00
47985;BME280;33753;52.912;-7.342;2023-02-26T03:32:52;101394.97;;;2.48;100.00
47985;BME280;33753;52.912;-7.342;2023-02-26T03:35:25;101399.00;;;2.27;100.00
47985;BME280;33753;52.912;-7.342;2023-02-26T03:37:55;101392.91;;;2.24;100.00
47985;BME280;33753;52.912;-7.342;2023-02-26T03:40:26;101401.84;;;2.23;100.00
47985;BME280;33753;52.912;-7.342;2023-02-26T03:42:57;101399.94;;;2.25;100.00
47985;BME280;33753;52.912;-7.342;2023-02-26T03:45:28;101402.59;;;2.25;100.00
47985;BME280;33753;52.912;-7.342;2023-02-26T03:48:00;101400.13;;;2.22;100.00
47985;BME280;33753;52.912;-7.342;2023-02-26T03:50:31;101400.91;;;2.24;100.00
47985;BME280;33753;52.912;-7.342;2023-02-26T03:53:38;101396.53;;;2.23;100.00
47985;BME280;33753;52.912;-7.342;2023-02-26T03:56:15;101400.91;;;2.24;100.00
47985;BME280;33753;52.912;-7.342;2023-02-26T03:58:59;101398.59;;;2.33;100.00
47985;BME280;33753;52.912;-7.342;2023-02-26T04:01:59;101401.09;;;2.36;100.00
47985;BME280;33753;52.912;-7.342;2023-02-26T04:04:33;101396.53;;;2.38;100.00
47985;BME280;33753;52.912;-7.342;2023-02-26T04:07:02;101407.09;;;2.39;100.00
47985;BME280;33753;52.912;-7.342;2023-02-26T04:09:30;101409.38;;;2.46;100.00
47985;BME280;33753;52.912;-7.342;2023-02-26T04:11:58;101400.31;;;2.48;100.00
47985;BME280;33753;52.912;-7.342;2023-02-26T04:14:28;101401.84;;;2.52;100.00
47985;BME280;33753;52.912;-7.342;2023-02-26T04:16:57;101405.31;;;2.54;100.00
47985;BME280;33753;52.912;-7.342;2023-02-26T04:19:25;101407.00;;;2.55;100.00
47985;BME280;33753;52.912;-7.342;2023-02-26T04:21:54;101407.78;;;2.57;100.00
47985;BME280;33753;52.912;-7.342;2023-02-26T04:24:23;101412.34;;;2.55;100.00
47985;BME280;33753;52.912;-7.342;2023-02-26T04:26:52;101408.72;;;2.56;100.00
47985;BME280;33753;52.912;-7.342;2023-02-26T04:29:21;101414.47;;;2.50;100.00
47985;BME280;33753;52.912;-7.342;2023-02-26T04:31:49;101416.94;;;2.53;100.00
47985;BME280;33753;52.912;-7.342;2023-02-26T04:34:17;101424.00;;;2.54;100.00
47985;BME280;33753;52.912;-7.342;2023-02-26T04:36:45;101426.66;;;2.54;100.00
47985;BME280;33753;52.912;-7.342;2023-02-26T04:39:15;101433.91;;;2.52;100.00
47985;BME280;33753;52.912;-7.342;2023-02-26T04:41:43;101436.97;;;2.46;100.00
47985;BME280;33753;52.912;-7.342;2023-02-26T04:44:11;101430.84;;;2.44;100.00
47985;BME280;33753;52.912;-7.342;2023-02-26T04:46:40;101439.16;;;2.39;100.00
47985;BME280;33753;52.912;-7.342;2023-02-26T04:49:09;101441.31;;;2.33;100.00
47985;BME280;33753;52.912;-7.342;2023-02-26T04:51:41;101440.94;;;2.24;100.00
47985;BME280;33753;52.912;-7.342;2023-02-26T04:54:11;101443.88;;;2.20;100.00
47985;BME280;33753;52.912;-7.342;2023-02-26T04:56:40;101446.84;;;2.15;100.00
47985;BME280;33753;52.912;-7.342;2023-02-26T04:59:09;101454.28;;;2.10;100.00
47985;BME280;33753;52.912;-7.342;2023-02-26T05:01:37;101453.69;;;2.05;100.00
47985;BME280;33753;52.912;-7.342;2023-02-26T05:04:06;101455.00;;;1.98;100.00
47985;BME280;33753;52.912;-7.342;2023-02-26T05:06:35;101451.06;;;1.89;100.00
47985;BME280;33753;52.912;-7.342;2023-02-26T05:09:04;101463.16;;;1.80;100.00
47985;BME280;33753;52.912;-7.342;2023-02-26T05:11:32;101452.16;;;1.70;100.00
47985;BME280;33753;52.912;-7.342;2023-02-26T05:14:02;101459.03;;;1.59;100.00
47985;BME280;33753;52.912;-7.342;2023-02-26T05:16:30;101458.72;;;1.49;100.00
47985;BME280;33753;52.912;-7.342;2023-02-26T05:18:58;101454.78;;;1.40;100.00
47985;BME280;33753;52.912;-7.342;2023-02-26T05:21:26;101464.06;;;1.33;100.00
47985;BME280;33753;52.912;-7.342;2023-02-26T05:23:55;101468.19;;;1.23;100.00
47985;BME280;33753;52.912;-7.342;2023-02-26T05:26:23;101466.22;;;1.10;100.00
47985;BME280;33753;52.912;-7.342;2023-02-26T05:28:52;101468.72;;;0.97;100.00
47985;BME280;33753;52.912;-7.342;2023-02-26T05:31:21;101472.13;;;0.83;100.00
47985;BME280;33753;52.912;-7.342;2023-02-26T05:33:50;101471.09;;;0.70;100.00
47985;BME280;33753;52.912;-7.342;2023-02-26T05:36:18;101469.25;;;0.55;100.00
47985;BME280;33753;52.912;-7.342;2023-02-26T05:38:46;101469.72;;;0.45;100.00
47985;BME280;33753;52.912;-7.342;2023-02-26T05:41:14;101476.63;;;0.32;100.00
47985;BME280;33753;52.912;-7.342;2023-02-26T05:43:42;101482.41;;;0.23;100.00
47985;BME280;33753;52.912;-7.342;2023-02-26T05:46:11;101493.38;;;0.16;100.00
47985;BME280;33753;52.912;-7.342;2023-02-26T05:48:41;101504.34;;;0.10;100.00
47985;BME280;33753;52.912;-7.342;2023-02-26T05:51:11;101509.97;;;0.04;100.00
47985;BME280;33753;52.912;-7.342;2023-02-26T05:53:39;101516.41;;;0.00;100.00
47985;BME280;33753;52.912;-7.342;2023-02-26T05:56:08;101513.88;;;-0.03;100.00
47985;BME280;33753;52.912;-7.342;2023-02-26T05:58:36;101516.00;;;-0.10;100.00
47985;BME280;33753;52.912;-7.342;2023-02-26T06:01:04;101508.47;;;-0.19;100.00
47985;BME280;33753;52.912;-7.342;2023-02-26T06:03:32;101506.19;;;-0.27;100.00
47985;BME280;33753;52.912;-7.342;2023-02-26T06:06:02;101515.25;;;-0.31;100.00
47985;BME280;33753;52.912;-7.342;2023-02-26T06:08:30;101514.00;;;-0.41;100.00
47985;BME280;33753;52.912;-7.342;2023-02-26T06:10:58;101516.00;;;-0.46;100.00
47985;BME280;33753;52.912;-7.342;2023-02-26T06:13:27;101514.41;;;-0.50;100.00
47985;BME280;33753;52.912;-7.342;2023-02-26T06:15:55;101511.06;;;-0.54;100.00
47985;BME280;33753;52.912;-7.342;2023-02-26T06:18:23;101520.03;;;-0.57;100.00
47985;BME280;33753;52.912;-7.342;2023-02-26T06:20:52;101520.03;;;-0.57;100.00
47985;BME280;33753;52.912;-7.342;2023-02-26T06:23:21;101523.63;;;-0.58;100.00
47985;BME280;33753;52.912;-7.342;2023-02-26T06:25:50;101525.50;;;-0.60;100.00
47985;BME280;33753;52.912;-7.342;2023-02-26T06:28:19;101525.50;;;-0.60;100.00
47985;BME280;33753;52.912;-7.342;2023-02-26T06:30:50;101534.41;;;-0.61;100.00
47985;BME280;33753;52.912;-7.342;2023-02-26T06:33:19;101538.94;;;-0.63;100.00
47985;BME280;33753;52.912;-7.342;2023-02-26T06:35:47;101533.81;;;-0.67;100.00
47985;BME280;33753;52.912;-7.342;2023-02-26T06:38:16;101538.44;;;-0.71;100.00
47985;BME280;33753;52.912;-7.342;2023-02-26T06:40:46;101539.66;;;-0.78;100.00
47985;BME280;33753;52.912;-7.342;2023-02-26T06:43:14;101542.47;;;-0.81;100.00
47985;BME280;33753;52.912;-7.342;2023-02-26T06:45:43;101539.72;;;-0.80;100.00
47985;BME280;33753;52.912;-7.342;2023-02-26T06:48:11;101557.44;;;-0.80;100.00
47985;BME280;33753;52.912;-7.342;2023-02-26T06:50:40;101556.66;;;-0.82;100.00
47985;BME280;33753;52.912;-7.342;2023-02-26T06:53:08;101559.25;;;-0.81;100.00
47985;BME280;33753;52.912;-7.342;2023-02-26T06:55:40;101569.66;;;-0.76;100.00
47985;BME280;33753;52.912;-7.342;2023-02-26T06:58:10;101572.31;;;-0.76;100.00
47985;BME280;33753;52.912;-7.342;2023-02-26T07:00:38;101572.97;;;-0.71;100.00
47985;BME280;33753;52.912;-7.342;2023-02-26T07:03:08;101591.44;;;-0.68;100.00
47985;BME280;33753;52.912;-7.342;2023-02-26T07:05:37;101605.28;;;-0.61;100.00
47985;BME280;33753;52.912;-7.342;2023-02-26T07:08:05;101599.63;;;-0.54;100.00
47985;BME280;33753;52.912;-7.342;2023-02-26T07:10:33;101613.25;;;-0.42;100.00
47985;BME280;33753;52.912;-7.342;2023-02-26T07:13:02;101618.13;;;-0.33;100.00
47985;BME280;33753;52.912;-7.342;2023-02-26T07:15:32;101624.88;;;-0.26;100.00
47985;BME280;33753;52.912;-7.342;2023-02-26T07:18:00;101627.41;;;-0.23;100.00
47985;BME280;33753;52.912;-7.342;2023-02-26T07:20:28;101635.41;;;-0.23;100.00
47985;BME280;33753;52.912;-7.342;2023-02-26T07:22:56;101635.25;;;-0.20;100.00
47985;BME280;33753;52.912;-7.342;2023-02-26T07:25:24;101636.97;;;-0.19;100.00
47985;BME280;33753;52.912;-7.342;2023-02-26T07:27:52;101640.25;;;-0.13;100.00
47985;BME280;33753;52.912;-7.342;2023-02-26T07:30:20;101649.03;;;-0.11;100.00
47985;BME280;33753;52.912;-7.342;2023-02-26T07:32:50;101650.59;;;-0.07;100.00
47985;BME280;33753;52.912;-7.342;2023-02-26T07:35:18;101657.41;;;-0.02;100.00
47985;BME280;33753;52.912;-7.342;2023-02-26T07:37:47;101659.97;;;0.02;100.00
47985;BME280;33753;52.912;-7.342;2023-02-26T07:40:15;101660.81;;;0.02;100.00
47985;BME280;33753;52.912;-7.342;2023-02-26T07:42:43;101654.63;;;0.02;100.00
47985;BME280;33753;52.912;-7.342;2023-02-26T07:45:11;101661.59;;;0.04;100.00
47985;BME280;33753;52.912;-7.342;2023-02-26T07:47:39;101661.31;;;0.10;100.00
47985;BME280;33753;52.912;-7.342;2023-02-26T07:50:10;101666.25;;;0.18;100.00
47985;BME280;33753;52.912;-7.342;2023-02-26T07:52:39;101665.88;;;0.26;100.00
47985;BME280;33753;52.912;-7.342;2023-02-26T07:55:08;101677.06;;;0.32;100.00
47985;BME280;33753;52.912;-7.342;2023-02-26T07:57:37;101684.91;;;0.36;100.00
47985;BME280;33753;52.912;-7.342;2023-02-26T08:00:06;101696.44;;;0.36;100.00
47985;BME280;33753;52.912;-7.342;2023-02-26T08:02:38;101696.28;;;0.39;100.00
47985;BME280;33753;52.912;-7.342;2023-02-26T08:05:06;101704.03;;;0.44;100.00
47985;BME280;33753;52.912;-7.342;2023-02-26T08:07:36;101705.53;;;0.49;100.00
47985;BME280;33753;52.912;-7.342;2023-02-26T08:10:05;101705.28;;;0.54;100.00
47985;BME280;33753;52.912;-7.342;2023-02-26T08:12:33;101706.78;;;0.60;100.00
47985;BME280;33753;52.912;-7.342;2023-02-26T08:15:02;101710.94;;;0.65;100.00
47985;BME280;33753;52.912;-7.342;2023-02-26T08:17:31;101718.56;;;0.73;100.00
47985;BME280;33753;52.912;-7.342;2023-02-26T08:19:59;101709.41;;;0.79;100.00
47985;BME280;33753;52.912;-7.342;2023-02-26T08:22:27;101717.94;;;0.85;100.00
47985;BME280;33753;52.912;-7.342;2023-02-26T08:24:57;101730.97;;;0.92;100.00
47985;BME280;33753;52.912;-7.342;2023-02-26T08:27:25;101736.66;;;1.01;100.00
47985;BME280;33753;52.912;-7.342;2023-02-26T08:29:53;101730.78;;;1.12;100.00
47985;BME280;33753;52.912;-7.342;2023-02-26T08:32:22;101736.44;;;1.24;100.00
47985;BME280;33753;52.912;-7.342;2023-02-26T08:34:52;101736.81;;;1.33;100.00
47985;BME280;33753;52.912;-7.342;2023-02-26T08:37:21;101749.44;;;1.47;100.00
47985;BME280;33753;52.912;-7.342;2023-02-26T08:39:49;101748.94;;;1.57;100.00
47985;BME280;33753;52.912;-7.342;2023-02-26T08:42:19;101746.41;;;1.71;100.00
47985;BME280;33753;52.912;-7.342;2023-02-26T08:44:47;101748.66;;;1.79;100.00
47985;BME280;33753;52.912;-7.342;2023-02-26T08:47:15;101754.03;;;1.95;100.00
47985;BME280;33753;52.912;-7.342;2023-02-26T08:49:54;101753.34;;;2.07;100.00
47985;BME280;33753;52.912;-7.342;2023-02-26T08:52:23;101757.25;;;2.17;100.00
47985;BME280;33753;52.912;-7.342;2023-02-26T08:54:51;101748.53;;;2.30;100.00
47985;BME280;33753;52.912;-7.342;2023-02-26T08:57:20;101749.59;;;2.43;100.00
47985;BME280;33753;52.912;-7.342;2023-02-26T08:59:49;101740.28;;;2.50;100.00
47985;BME280;33753;52.912;-7.342;2023-02-26T09:02:17;101735.94;;;2.64;100.00
47985;BME280;33753;52.912;-7.342;2023-02-26T09:04:45;101735.31;;;2.74;100.00
47985;BME280;33753;52.912;-7.342;2023-02-26T09:07:14;101730.88;;;2.89;100.00
47985;BME280;33753;52.912;-7.342;2023-02-26T09:09:42;101729.78;;;3.08;100.00
47985;BME280;33753;52.912;-7.342;2023-02-26T09:12:10;101731.28;;;3.28;100.00
47985;BME280;33753;52.912;-7.342;2023-02-26T09:14:39;101735.50;;;3.46;100.00
47985;BME280;33753;52.912;-7.342;2023-02-26T09:17:07;101732.19;;;3.72;100.00
47985;BME280;33753;52.912;-7.342;2023-02-26T09:19:36;101731.59;;;3.81;100.00
47985;BME280;33753;52.912;-7.342;2023-02-26T09:22:06;101730.84;;;3.79;100.00
47985;BME280;33753;52.912;-7.342;2023-02-26T09:24:34;101727.47;;;3.75;100.00
47985;BME280;33753;52.912;-7.342;2023-02-26T09:27:02;101735.78;;;3.85;100.00
47985;BME280;33753;52.912;-7.342;2023-02-26T09:29:30;101736.56;;;4.02;100.00
47985;BME280;33753;52.912;-7.342;2023-02-26T09:32:00;101746.69;;;4.11;100.00
47985;BME280;33753;52.912;-7.342;2023-02-26T09:34:28;101736.56;;;4.43;100.00
47985;BME280;33753;52.912;-7.342;2023-02-26T09:36:57;101735.66;;;4.84;100.00
47985;BME280;33753;52.912;-7.342;2023-02-26T09:39:25;101740.00;;;5.26;100.00
47985;BME280;33753;52.912;-7.342;2023-02-26T09:41:53;101740.25;;;5.61;100.00
47985;BME280;33753;52.912;-7.342;2023-02-26T09:44:23;101733.19;;;5.99;100.00
47985;BME280;33753;52.912;-7.342;2023-02-26T09:46:54;101735.69;;;6.26;100.00
47985;BME280;33753;52.912;-7.342;2023-02-26T09:49:30;101730.28;;;6.63;100.00
47985;BME280;33753;52.912;-7.342;2023-02-26T09:52:01;101726.28;;;7.04;100.00
47985;BME280;33753;52.912;-7.342;2023-02-26T09:54:33;101721.59;;;7.31;100.00
47985;BME280;33753;52.912;-7.342;2023-02-26T09:57:03;101725.56;;;7.72;100.00
47985;BME280;33753;52.912;-7.342;2023-02-26T09:59:32;101728.84;;;8.21;100.00
47985;BME280;33753;52.912;-7.342;2023-02-26T10:02:03;101728.03;;;8.64;100.00
47985;BME280;33753;52.912;-7.342;2023-02-26T10:04:41;101741.66;;;8.95;100.00
47985;BME280;33753;52.912;-7.342;2023-02-26T10:07:16;101752.06;;;9.63;100.00
47985;BME280;33753;52.912;-7.342;2023-02-26T10:09:55;101740.16;;;9.96;100.00
47985;BME280;33753;52.912;-7.342;2023-02-26T10:12:25;101751.44;;;10.11;100.00
47985;BME280;33753;52.912;-7.342;2023-02-26T10:14:54;101740.72;;;10.00;100.00
47985;BME280;33753;52.912;-7.342;2023-02-26T10:17:25;101742.09;;;10.25;100.00
47985;BME280;33753;52.912;-7.342;2023-02-26T10:19:59;101744.19;;;10.02;100.00
47985;BME280;33753;52.912;-7.342;2023-02-26T10:22:29;101752.84;;;10.06;100.00
47985;BME280;33753;52.912;-7.342;2023-02-26T10:25:00;101751.44;;;10.11;100.00
47985;BME280;33753;52.912;-7.342;2023-02-26T10:27:35;101745.44;;;9.98;100.00
47985;BME280;33753;52.912;-7.342;2023-02-26T10:30:05;101752.41;;;9.48;100.00
47985;BME280;33753;52.912;-7.342;2023-02-26T10:32:35;101755.34;;;9.88;100.00
47985;BME280;33753;52.912;-7.342;2023-02-26T10:35:07;101747.41;;;9.96;100.00
47985;BME280;33753;52.912;-7.342;2023-02-26T10:37:39;101753.31;;;9.59;100.00
47985;BME280;33753;52.912;-7.342;2023-02-26T10:40:12;101757.44;;;9.53;100.00
47985;BME280;33753;52.912;-7.342;2023-02-26T10:42:42;101760.97;;;9.32;100.00
47985;BME280;33753;52.912;-7.342;2023-02-26T10:45:15;101758.88;;;9.15;100.00
47985;BME280;33753;52.912;-7.342;2023-02-26T10:47:51;101763.56;;;9.02;100.00
47985;BME280;33753;52.912;-7.342;2023-02-26T10:50:25;101757.16;;;9.14;100.00
47985;BME280;33753;52.912;-7.342;2023-02-26T10:52:54;101757.06;;;9.04;100.00
47985;BME280;33753;52.912;-7.342;2023-02-26T10:55:28;101763.03;;;9.19;100.00
47985;BME280;33753;52.912;-7.342;2023-02-26T10:58:02;101758.25;;;9.11;100.00
47985;BME280;33753;52.912;-7.342;2023-02-26T11:00:30;101762.50;;;9.46;100.00
47985;BME280;33753;52.912;-7.342;2023-02-26T11:03:01;101755.56;;;9.75;100.00
47985;BME280;33753;52.912;-7.342;2023-02-26T11:05:32;101764.97;;;10.11;100.00
47985;BME280;33753;52.912;-7.342;2023-02-26T11:08:02;101774.34;;;9.76;100.00
47985;BME280;33753;52.912;-7.342;2023-02-26T11:10:36;101784.81;;;9.48;100.00
47985;BME280;33753;52.912;-7.342;2023-02-26T11:13:06;101786.22;;;9.22;100.00
47985;BME280;33753;52.912;-7.342;2023-02-26T11:15:34;101787.31;;;8.87;100.00
47985;BME280;33753;52.912;-7.342;2023-02-26T11:18:02;101785.19;;;8.69;100.00
47985;BME280;33753;52.912;-7.342;2023-02-26T11:20:35;101786.66;;;8.62;100.00
47985;BME280;33753;52.912;-7.342;2023-02-26T11:23:05;101784.16;;;8.70;100.00
47985;BME280;33753;52.912;-7.342;2023-02-26T11:25:34;101795.28;;;9.21;100.00
47985;BME280;33753;52.912;-7.342;2023-02-26T11:28:04;101772.13;;;9.39;100.00
47985;BME280;33753;52.912;-7.342;2023-02-26T11:30:35;101775.72;;;9.92;100.00
47985;BME280;33753;52.912;-7.342;2023-02-26T11:33:06;101769.38;;;10.12;100.00
47985;BME280;33753;52.912;-7.342;2023-02-26T11:35:36;101783.78;;;10.53;100.00
47985;BME280;33753;52.912;-7.342;2023-02-26T11:38:04;101769.03;;;10.87;100.00
47985;BME280;33753;52.912;-7.342;2023-02-26T11:40:33;101765.59;;;11.04;100.00
47985;BME280;33753;52.912;-7.342;2023-02-26T11:43:04;101777.31;;;11.15;100.00
47985;BME280;33753;52.912;-7.342;2023-02-26T11:45:33;101780.72;;;11.07;100.00
47985;BME280;33753;52.912;-7.342;2023-02-26T11:48:04;101778.81;;;10.59;100.00
47985;BME280;33753;52.912;-7.342;2023-02-26T11:50:35;101787.88;;;10.38;100.00
47985;BME280;33753;52.912;-7.342;2023-02-26T11:53:16;101790.41;;;9.99;100.00
47985;BME280;33753;52.912;-7.342;2023-02-26T11:55:45;101798.06;;;9.51;100.00
47985;BME280;33753;52.912;-7.342;2023-02-26T11:58:19;101793.53;;;9.31;100.00
47985;BME280;33753;52.912;-7.342;2023-02-26T12:00:48;101788.19;;;9.20;100.00
47985;BME280;33753;52.912;-7.342;2023-02-26T12:03:19;101798.38;;;8.84;100.00
47985;BME280;33753;52.912;-7.342;2023-02-26T12:05:49;101779.72;;;8.92;100.00
47985;BME280;33753;52.912;-7.342;2023-02-26T12:08:24;101784.38;;;8.90;100.00
47985;BME280;33753;52.912;-7.342;2023-02-26T12:10:57;101781.66;;;8.90;100.00
47985;BME280;33753;52.912;-7.342;2023-02-26T12:13:29;101787.31;;;8.87;100.00
47985;BME280;33753;52.912;-7.342;2023-02-26T12:16:02;101788.66;;;8.92;100.00
47985;BME280;33753;52.912;-7.342;2023-02-26T12:18:35;101791.50;;;8.79;100.00
47985;BME280;33753;52.912;-7.342;2023-02-26T12:21:08;101787.00;;;8.57;100.00
47985;BME280;33753;52.912;-7.342;2023-02-26T12:23:49;101785.22;;;8.46;100.00
47985;BME280;33753;52.912;-7.342;2023-02-26T12:26:24;101793.03;;;8.38;100.00
47985;BME280;33753;52.912;-7.342;2023-02-26T12:29:06;101788.16;;;8.32;100.00
47985;BME280;33753;52.912;-7.342;2023-02-26T12:31:56;101786.06;;;8.24;100.00
47985;BME280;33753;52.912;-7.342;2023-02-26T12:34:35;101790.47;;;8.37;100.00
47985;BME280;33753;52.912;-7.342;2023-02-26T12:37:16;101788.38;;;8.40;100.00
47985;BME280;33753;52.912;-7.342;2023-02-26T12:39:54;101781.16;;;8.41;100.00
47985;BME280;33753;52.912;-7.342;2023-02-26T12:42:27;101786.41;;;8.31;100.00
47985;BME280;33753;52.912;-7.342;2023-02-26T12:45:03;101791.09;;;8.29;100.00
47985;BME280;33753;52.912;-7.342;2023-02-26T12:47:40;101785.19;;;8.35;100.00
47985;BME280;33753;52.912;-7.342;2023-02-26T12:50:18;101785.91;;;8.37;100.00
47985;BME280;33753;52.912;-7.342;2023-02-26T12:55:43;101784.09;;;8.38;100.00
47985;BME280;33753;52.912;-7.342;2023-02-26T12:58:26;101781.78;;;8.33;100.00
47985;BME280;33753;52.912;-7.342;2023-02-26T13:01:03;101779.69;;;8.25;100.00